createdAt,value
2022-08-02T00:02:21.609Z,22.34
2022-08-02T00:06:25.283Z,22.35
2022-08-02T00:10:28.549Z,22.37
2022-08-02T00:14:34.135Z,22.35
2022-08-02T00:18:39.147Z,22.29
2022-08-02T00:22:44.356Z,22.18
2022-08-02T00:26:47.541Z,22.12
2022-08-02T00:30:50.963Z,22.11
2022-08-02T00:34:55.794Z,22.10
2022-08-02T00:38:59.004Z,22.11
2022-08-02T00:43:04.330Z,22.09
2022-08-02T00:47:07.678Z,22.09
2022-08-02T00:51:13.121Z,22.03
2022-08-02T00:55:17.484Z,22.02
2022-08-02T00:59:26.731Z,21.93
2022-08-02T01:03:29.856Z,21.93
2022-08-02T01:07:34.414Z,21.91
2022-08-02T01:11:37.998Z,21.84
2022-08-02T01:15:47.376Z,21.80
2022-08-02T01:19:56.317Z,21.77
2022-08-02T01:24:14.219Z,21.76
2022-08-02T01:28:31.528Z,21.76
2022-08-02T01:32:40.395Z,21.72
2022-08-02T01:36:47.111Z,21.70
2022-08-02T01:40:52.728Z,21.66
2022-08-02T01:45:00.154Z,21.65
2022-08-02T01:49:09.523Z,21.68
2022-08-02T01:53:15.431Z,21.68
2022-08-02T01:57:21.245Z,21.67
2022-08-02T02:01:26.084Z,21.69
2022-08-02T02:05:32.260Z,21.67
2022-08-02T02:09:49.163Z,21.66
2022-08-02T02:13:54.284Z,21.65
2022-08-02T02:18:13.172Z,21.62
2022-08-02T02:22:16.967Z,21.59
2022-08-02T02:26:31.080Z,21.54
2022-08-02T02:30:38.664Z,21.54
2022-08-02T02:34:45.588Z,21.52
2022-08-02T02:38:50.873Z,21.49
2022-08-02T02:42:54.449Z,21.47
2022-08-02T02:46:59.414Z,21.47
2022-08-02T02:51:06.323Z,21.44
2022-08-02T02:55:12.940Z,21.43
2022-08-02T02:59:19.323Z,21.42
2022-08-02T03:03:23.428Z,21.40
2022-08-02T03:07:30.144Z,21.41
2022-08-02T03:11:33.796Z,21.43
2022-08-02T03:15:38.692Z,21.42
2022-08-02T03:19:41.793Z,21.39
2022-08-02T03:23:46.443Z,21.39
2022-08-02T03:27:49.662Z,21.36
2022-08-02T03:31:53.480Z,21.31
2022-08-02T03:35:59.723Z,21.27
2022-08-02T03:40:08.890Z,21.26
2022-08-02T03:44:13.731Z,21.25
2022-08-02T03:48:34.587Z,21.26
2022-08-02T03:52:38.710Z,21.27
2022-08-02T03:56:43.347Z,21.28
2022-08-02T04:00:46.798Z,21.21
2022-08-02T04:04:50.093Z,21.17
2022-08-02T04:08:53.366Z,21.12
2022-08-02T04:12:59.164Z,21.12
2022-08-02T04:17:05.822Z,21.14
2022-08-02T04:21:14.901Z,21.15
2022-08-02T04:25:21.347Z,21.17
2022-08-02T04:29:43.890Z,21.18
2022-08-02T04:33:50.476Z,21.21
2022-08-02T04:38:08.195Z,21.22
2022-08-02T04:42:22.129Z,21.20
2022-08-02T04:46:27.673Z,21.20
2022-08-02T04:50:30.860Z,21.21
2022-08-02T04:54:34.115Z,21.24
2022-08-02T04:58:40.373Z,21.27
2022-08-02T05:02:45.556Z,21.31
2022-08-02T05:06:48.679Z,21.34
2022-08-02T05:10:51.825Z,21.38
2022-08-02T05:14:55.203Z,21.41
2022-08-02T05:19:00.077Z,21.46
2022-08-02T05:23:04.019Z,21.52
2022-08-02T05:27:17.222Z,21.61
2022-08-02T05:31:25.125Z,21.72
2022-08-02T05:35:29.999Z,21.87
2022-08-02T05:39:33.155Z,22.03
2022-08-02T05:43:36.249Z,22.18
2022-08-02T05:47:40.623Z,22.34
2022-08-02T05:51:56.432Z,22.49
2022-08-02T05:56:10.155Z,22.70
2022-08-02T06:00:15.232Z,22.97
2022-08-02T06:04:25.915Z,23.26
2022-08-02T06:08:47.553Z,23.52
2022-08-02T06:12:52.972Z,23.75
2022-08-02T06:16:57.815Z,23.85
2022-08-02T06:22:32.651Z,24.02
2022-08-02T06:25:49.862Z,24.26
2022-08-02T06:29:55.053Z,24.43
2022-08-02T06:33:58.777Z,24.53
2022-08-02T06:38:03.236Z,24.68
2022-08-02T06:42:13.911Z,24.61
2022-08-02T06:46:37.680Z,24.54
2022-08-02T06:50:45.343Z,24.44
2022-08-02T06:54:48.462Z,24.37
2022-08-02T06:58:53.098Z,24.31
2022-08-02T07:02:56.291Z,24.29
2022-08-02T07:06:59.567Z,24.31
2022-08-02T07:11:03.039Z,24.33
2022-08-02T07:15:10.160Z,24.31
2022-08-02T07:19:13.650Z,24.38
2022-08-02T07:23:16.986Z,24.42
2022-08-02T07:27:20.120Z,24.48
2022-08-02T07:31:24.769Z,24.49
2022-08-02T07:35:28.787Z,24.56
2022-08-02T07:39:34.877Z,24.65
2022-08-02T07:43:38.897Z,24.71
2022-08-02T07:47:44.526Z,24.76
2022-08-02T07:51:48.164Z,24.85
2022-08-02T07:55:51.312Z,24.87
2022-08-02T07:59:54.484Z,24.91
2022-08-02T08:03:58.981Z,25.01
2022-08-02T08:08:02.202Z,25.12
2022-08-02T08:12:06.282Z,25.31
2022-08-02T08:16:09.697Z,25.54
2022-08-02T08:20:15.985Z,25.69
2022-08-02T08:24:19.470Z,25.75
2022-08-02T08:28:22.951Z,25.81
2022-08-02T08:32:27.129Z,25.87
2022-08-02T08:36:31.992Z,26.07
2022-08-02T08:40:36.662Z,26.23
2022-08-02T08:44:39.939Z,26.37
2022-08-02T08:48:47.672Z,26.42
2022-08-02T08:52:58.655Z,26.44
2022-08-02T08:57:05.563Z,26.46
2022-08-02T09:01:09.275Z,26.46
2022-08-02T09:05:14.249Z,26.62
2022-08-02T09:09:18.811Z,26.74
2022-08-02T09:13:38.109Z,26.80
2022-08-02T09:17:51.971Z,26.97
2022-08-02T09:22:03.818Z,27.19
2022-08-02T09:26:10.464Z,27.35
2022-08-02T09:30:16.834Z,27.50
2022-08-02T09:34:20.433Z,27.68
2022-08-02T09:38:25.837Z,27.74
2022-08-02T09:42:31.402Z,27.86
2022-08-02T09:46:38.048Z,28.01
2022-08-02T09:50:42.883Z,28.09
2022-08-02T09:54:46.381Z,28.08
2022-08-02T09:58:54.996Z,28.17
2022-08-02T10:03:08.939Z,28.32
2022-08-02T10:07:14.664Z,28.43
2022-08-02T10:11:18.630Z,28.52
2022-08-02T10:15:27.267Z,28.52
2022-08-02T10:20:00.095Z,28.52
2022-08-02T10:23:56.053Z,28.66
2022-08-02T10:28:06.488Z,28.83
2022-08-02T10:32:15.445Z,28.97
2022-08-02T10:36:20.341Z,29.16
2022-08-02T10:40:27.391Z,29.25
2022-08-02T10:44:32.589Z,29.42
2022-08-02T10:53:36.966Z,29.66
2022-08-02T10:57:40.021Z,29.59
2022-08-02T11:01:45.297Z,29.55
2022-08-02T11:06:02.877Z,29.60
2022-08-02T11:10:32.335Z,29.58
2022-08-02T11:14:37.503Z,29.76
2022-08-02T11:19:03.195Z,29.71
2022-08-02T11:23:44.130Z,29.55
2022-08-02T11:27:49.560Z,29.39
2022-08-02T11:31:52.653Z,29.51
2022-08-02T11:36:02.783Z,29.72
2022-08-02T11:40:19.695Z,29.90
2022-08-02T11:44:24.040Z,30.12
2022-08-02T11:48:35.010Z,30.13
2022-08-02T11:52:39.927Z,29.90
2022-08-02T11:56:44.415Z,29.78
2022-08-02T12:00:48.088Z,29.81
2022-08-02T12:04:58.137Z,30.00
2022-08-02T12:09:05.907Z,30.04
2022-08-02T12:13:22.723Z,30.04
2022-08-02T12:17:47.653Z,30.13
2022-08-02T12:22:07.249Z,30.26
2022-08-02T12:26:16.117Z,30.33
2022-08-02T12:30:27.790Z,30.39
2022-08-02T12:34:32.586Z,30.47
2022-08-02T12:38:35.778Z,30.56
2022-08-02T12:42:48.215Z,30.52
2022-08-02T12:47:02.158Z,30.57
2022-08-02T12:51:24.178Z,30.69
2022-08-02T12:56:02.482Z,30.87
2022-08-02T12:59:53.371Z,31.01
2022-08-02T13:04:10.815Z,30.87
2022-08-02T13:08:16.645Z,30.83
2022-08-02T13:12:19.721Z,30.83
2022-08-02T13:16:30.590Z,30.70
2022-08-02T13:20:38.174Z,30.69
2022-08-02T13:24:56.221Z,30.81
2022-08-02T13:29:00.312Z,30.69
2022-08-02T13:33:03.542Z,30.58
2022-08-02T13:37:08.090Z,30.62
2022-08-02T13:41:11.592Z,30.57
2022-08-02T13:45:14.854Z,30.57
2022-08-02T13:49:19.777Z,30.60
2022-08-02T13:53:25.303Z,30.66
2022-08-02T13:57:28.282Z,30.67
2022-08-02T14:01:33.076Z,30.62
2022-08-02T14:05:47.452Z,30.68
2022-08-02T14:09:53.374Z,30.71
2022-08-02T14:13:56.355Z,30.71
2022-08-02T14:17:59.393Z,30.69
2022-08-02T14:22:11.039Z,30.65
2022-08-02T14:26:26.775Z,30.64
2022-08-02T14:30:30.439Z,30.66
2022-08-02T14:34:33.517Z,30.69
2022-08-02T14:38:37.814Z,30.70
2022-08-02T14:42:42.260Z,30.63
2022-08-02T14:46:45.509Z,30.65
2022-08-02T14:50:48.732Z,30.64
2022-08-02T14:54:51.965Z,30.64
2022-08-02T14:58:56.380Z,30.64
2022-08-02T15:02:59.831Z,30.60
2022-08-02T15:07:02.997Z,30.61
2022-08-02T15:11:07.285Z,30.52
2022-08-02T15:15:12.040Z,30.52
2022-08-02T15:19:15.384Z,30.48
2022-08-02T15:23:19.544Z,30.52
2022-08-02T15:27:23.233Z,30.46
2022-08-02T15:31:33.245Z,30.45
2022-08-02T15:35:36.846Z,30.44
2022-08-02T15:39:40.211Z,30.44
2022-08-02T15:44:00.693Z,30.41
2022-08-02T15:48:07.403Z,30.37
2022-08-02T15:52:11.380Z,30.33
2022-08-02T15:56:14.578Z,30.33
2022-08-02T16:00:19.220Z,30.26
2022-08-02T16:04:23.902Z,30.16
2022-08-02T16:08:26.905Z,30.11
2022-08-02T16:12:32.318Z,30.09
2022-08-02T16:16:37.409Z,30.04
2022-08-02T16:20:42.073Z,30.02
2022-08-02T16:24:45.099Z,29.96
2022-08-02T16:28:48.269Z,29.93
2022-08-02T16:32:51.307Z,29.89
2022-08-02T16:36:55.770Z,29.84
2022-08-02T16:41:01.508Z,29.81
2022-08-02T16:45:05.268Z,29.79
2022-08-02T16:50:03.830Z,29.77
2022-08-02T16:53:37.208Z,29.73
2022-08-02T16:57:56.727Z,29.72
2022-08-02T17:02:11.141Z,29.71
2022-08-02T17:06:16.076Z,29.70
2022-08-02T17:10:20.696Z,29.67
2022-08-02T17:14:23.685Z,29.62
2022-08-02T17:18:30.245Z,29.60
2022-08-02T17:22:36.903Z,29.57
2022-08-02T17:26:41.664Z,29.55
2022-08-02T17:30:45.266Z,29.53
2022-08-02T17:34:56.616Z,29.48
2022-08-02T17:39:04.757Z,29.43
2022-08-02T17:43:14.771Z,29.35
2022-08-02T17:47:19.896Z,29.28
2022-08-02T17:52:15.418Z,29.24
2022-08-02T17:55:51.141Z,29.17
2022-08-02T18:00:04.158Z,29.10
2022-08-02T18:04:07.898Z,29.05
2022-08-02T18:08:10.900Z,29.01
2022-08-02T18:12:18.368Z,28.90
2022-08-02T18:16:23.609Z,28.83
2022-08-02T18:20:27.195Z,28.71
2022-08-02T18:24:30.414Z,28.65
2022-08-02T18:28:34.696Z,28.59
2022-08-02T18:33:55.813Z,28.51
2022-08-02T18:37:03.805Z,28.42
2022-08-02T18:41:12.654Z,28.35
2022-08-02T18:45:19.816Z,28.28
2022-08-02T18:49:25.515Z,28.19
2022-08-02T18:53:41.725Z,28.12
2022-08-02T18:58:01.965Z,28.11
2022-08-02T19:02:09.433Z,28.06
2022-08-02T19:06:13.946Z,28.03
2022-08-02T19:10:22.956Z,27.98
2022-08-02T19:14:27.741Z,27.92
2022-08-02T19:18:31.507Z,27.86
2022-08-02T19:22:37.148Z,27.83
2022-08-02T19:26:40.889Z,27.78
2022-08-02T19:30:44.350Z,27.76
2022-08-02T19:34:47.285Z,27.71
2022-08-02T19:38:52.332Z,27.61
2022-08-02T19:44:26.938Z,27.54
2022-08-02T19:47:20.413Z,27.47
2022-08-02T19:51:54.683Z,27.38
2022-08-02T19:56:06.603Z,27.29
2022-08-02T20:00:21.415Z,27.20
2022-08-02T20:05:08.130Z,27.13
2022-08-02T20:14:40.966Z,26.96
2022-08-02T20:19:23.800Z,26.92
2022-08-02T20:23:49.215Z,26.89
2022-08-02T21:08:13.885Z,26.05
2022-08-02T21:12:18.898Z,26.00
2022-08-02T21:16:32.615Z,25.97
2022-08-02T21:20:36.961Z,25.89
2022-08-02T21:24:40.337Z,25.84
2022-08-02T21:28:45.661Z,25.77
2022-08-02T21:32:54.573Z,25.71
2022-08-02T21:36:57.763Z,25.67
2022-08-02T21:41:00.960Z,25.61
2022-08-02T21:45:17.449Z,25.56
2022-08-02T21:49:40.582Z,25.51
2022-08-02T21:54:18.574Z,25.44
2022-08-02T21:58:10.921Z,25.35
2022-08-02T22:02:18.273Z,25.27
2022-08-02T22:06:21.692Z,25.17
2022-08-02T22:10:27.169Z,25.14
2022-08-02T22:14:30.341Z,25.10
2022-08-02T22:18:35.015Z,25.09
2022-08-02T22:22:38.345Z,25.05
2022-08-02T22:26:41.329Z,24.98
2022-08-02T22:30:45.424Z,24.94
2022-08-02T22:34:57.253Z,24.89
2022-08-02T22:39:00.978Z,24.84
2022-08-02T22:43:03.924Z,24.79
2022-08-02T22:47:14.850Z,24.76
2022-08-02T22:51:19.895Z,24.70
2022-08-02T22:55:23.411Z,24.64
2022-08-02T22:59:36.533Z,24.58
2022-08-02T23:03:44.178Z,24.50
2022-08-02T23:07:48.665Z,24.42
2022-08-02T23:11:51.867Z,24.36
2022-08-02T23:16:13.080Z,24.29
2022-08-02T23:20:16.299Z,24.24
2022-08-02T23:24:22.581Z,24.19
2022-08-02T23:28:25.606Z,24.15
2022-08-02T23:32:28.980Z,24.10
2022-08-02T23:36:32.834Z,24.04
2022-08-02T23:40:40.518Z,24.00
2022-08-02T23:44:44.199Z,23.95
2022-08-02T23:48:47.375Z,23.90
2022-08-02T23:52:51.012Z,23.84
2022-08-02T23:56:55.762Z,23.79
